createdAt,value
2019-05-02T00:00:57.002Z,302.26
2019-05-02T00:01:57.014Z,302.37
2019-05-02T00:02:59.856Z,302.38
2019-05-02T00:03:56.971Z,302.28
2019-05-02T00:04:57.102Z,302.40
2019-05-02T00:05:56.957Z,302.33
2019-05-02T00:06:56.936Z,302.35
2019-05-02T00:07:58.493Z,302.61
2019-05-02T00:08:56.977Z,302.43
2019-05-02T00:09:56.918Z,302.42
2019-05-02T00:10:56.985Z,302.39
2019-05-02T00:11:58.858Z,302.47
2019-05-02T00:12:56.853Z,302.25
2019-05-02T00:13:56.860Z,302.31
2019-05-02T00:15:02.010Z,302.49
2019-05-02T00:15:58.027Z,302.50
2019-05-02T00:16:56.823Z,302.42
2019-05-02T00:18:01.047Z,302.27
2019-05-02T00:18:56.810Z,302.17
2019-05-02T00:19:56.801Z,302.41
2019-05-02T00:20:57.145Z,302.49
2019-05-02T00:21:56.778Z,302.46
2019-05-02T00:22:56.769Z,302.42
2019-05-02T00:23:59.243Z,302.35
2019-05-02T00:24:57.721Z,302.47
2019-05-02T00:25:56.813Z,302.53
2019-05-02T00:27:01.199Z,302.45
2019-05-02T00:27:57.722Z,302.51
2019-05-02T00:28:56.709Z,302.67
2019-05-02T00:29:58.767Z,302.47
2019-05-02T00:30:56.693Z,302.57
2019-05-02T00:31:56.664Z,302.52
2019-05-02T00:32:58.249Z,302.48
2019-05-02T00:33:56.633Z,302.31
2019-05-02T00:34:56.632Z,302.33
2019-05-02T00:35:56.617Z,302.32
2019-05-02T00:36:56.623Z,302.48
2019-05-02T00:37:57.532Z,302.31
2019-05-02T00:38:57.583Z,302.44
2019-05-02T00:39:56.598Z,302.43
2019-05-02T00:40:57.499Z,302.56
2019-05-02T00:41:57.590Z,302.45
2019-05-02T00:42:58.148Z,302.43
2019-05-02T00:43:56.592Z,302.31
2019-05-02T00:44:56.578Z,302.35
2019-05-02T00:45:59.783Z,302.50
2019-05-02T00:46:56.536Z,302.34
2019-05-02T00:47:56.517Z,302.51
2019-05-02T00:49:00.147Z,302.52
2019-05-02T00:49:57.472Z,302.57
2019-05-02T00:50:56.494Z,302.48
2019-05-02T00:52:00.928Z,302.45
2019-05-02T00:52:56.451Z,302.53
2019-05-02T00:53:56.461Z,302.53
2019-05-02T00:54:58.711Z,302.58
2019-05-02T00:55:56.392Z,302.45
2019-05-02T00:56:56.443Z,302.49
2019-05-02T00:57:56.941Z,302.67
2019-05-02T00:58:56.381Z,302.41
2019-05-02T00:59:56.400Z,302.44
2019-05-02T01:00:56.353Z,302.65
2019-05-02T01:02:00.135Z,302.72
2019-05-02T01:02:57.351Z,302.39
2019-05-02T01:03:56.340Z,302.30
2019-05-02T01:04:59.373Z,302.54
2019-05-02T01:05:57.297Z,302.73
2019-05-02T01:06:56.294Z,302.53
2019-05-02T01:08:01.057Z,302.49
2019-05-02T01:08:57.243Z,302.44
2019-05-02T01:09:56.248Z,302.39
2019-05-02T01:10:56.855Z,302.59
2019-05-02T01:11:56.228Z,302.47
2019-05-02T01:12:56.250Z,302.80
2019-05-02T01:13:57.756Z,302.64
2019-05-02T01:14:56.315Z,302.75
2019-05-02T01:15:56.239Z,302.68
2019-05-02T01:16:56.333Z,302.58
2019-05-02T01:17:56.158Z,302.56
2019-05-02T01:18:56.141Z,302.66
2019-05-02T01:19:56.133Z,302.56
2019-05-02T01:20:58.065Z,302.72
2019-05-02T01:21:57.209Z,302.74
2019-05-02T01:22:56.138Z,302.75
2019-05-02T01:23:58.909Z,302.41
2019-05-02T01:24:57.194Z,302.70
2019-05-02T01:25:56.769Z,302.60
2019-05-02T01:26:59.893Z,302.57
2019-05-02T01:27:57.114Z,302.69
2019-05-02T01:28:56.224Z,302.74
2019-05-02T01:29:56.100Z,302.69
2019-05-02T01:30:56.117Z,302.64
2019-05-02T01:31:56.083Z,302.60
2019-05-02T01:32:56.050Z,302.81
2019-05-02T01:33:56.027Z,302.34
2019-05-02T01:34:56.399Z,302.52
2019-05-02T01:35:56.021Z,302.55
2019-05-02T01:36:55.993Z,302.73
2019-05-02T01:37:56.138Z,302.60
2019-05-02T01:38:55.956Z,302.46
2019-05-02T01:39:55.950Z,302.50
2019-05-02T01:40:55.911Z,302.58
2019-05-02T01:42:00.074Z,302.70
2019-05-02T01:42:57.774Z,302.49
2019-05-02T01:44:00.172Z,302.63
2019-05-02T01:44:56.916Z,302.63
2019-05-02T01:45:55.871Z,302.55
2019-05-02T01:46:58.705Z,302.68
2019-05-02T01:47:55.850Z,302.42
2019-05-02T01:48:55.879Z,302.86
2019-05-02T01:49:57.158Z,302.62
2019-05-02T01:50:56.775Z,302.66
2019-05-02T01:51:55.878Z,302.51
2019-05-02T01:52:58.485Z,302.85
2019-05-02T01:53:55.775Z,302.56
2019-05-02T01:54:55.810Z,302.79
2019-05-02T01:55:57.636Z,302.45
2019-05-02T01:56:55.754Z,302.60
2019-05-02T01:57:55.782Z,302.63
2019-05-02T01:58:57.657Z,302.86
2019-05-02T01:59:55.751Z,302.66
2019-05-02T02:00:55.710Z,302.69
2019-05-02T02:01:57.929Z,302.53
2019-05-02T02:02:55.691Z,302.78
2019-05-02T02:03:55.729Z,302.58
2019-05-02T02:04:56.953Z,302.65
2019-05-02T02:05:55.676Z,302.48
2019-05-02T02:06:55.731Z,302.66
2019-05-02T02:07:57.446Z,302.70
2019-05-02T02:08:56.773Z,302.35
2019-05-02T02:09:55.771Z,302.60
2019-05-02T02:10:57.970Z,302.61
2019-05-02T02:11:55.631Z,302.45
2019-05-02T02:13:04.672Z,302.64
2019-05-02T02:13:56.626Z,302.46
2019-05-02T02:14:55.652Z,302.66
2019-05-02T02:16:00.107Z,302.60
2019-05-02T02:16:57.273Z,302.42
2019-05-02T02:17:55.562Z,302.53
2019-05-02T02:18:59.066Z,302.56
2019-05-02T02:19:56.557Z,302.58
2019-05-02T02:20:55.493Z,302.76
2019-05-02T02:21:57.504Z,302.59
2019-05-02T02:22:56.510Z,302.36
2019-05-02T02:23:55.614Z,302.63
2019-05-02T02:24:55.934Z,302.64
2019-05-02T02:25:57.347Z,302.66
2019-05-02T02:26:55.428Z,302.49
2019-05-02T02:27:59.735Z,302.45
2019-05-02T02:28:56.385Z,302.62
2019-05-02T02:29:55.390Z,302.21
2019-05-02T02:30:57.636Z,302.29
2019-05-02T02:31:56.366Z,302.38
2019-05-02T02:33:00.825Z,302.33
2019-05-02T02:33:56.369Z,302.22
2019-05-02T02:34:55.382Z,302.25
2019-05-02T02:35:55.340Z,302.40
2019-05-02T02:36:55.346Z,302.29
2019-05-02T02:37:55.843Z,302.16
2019-05-02T02:38:55.330Z,302.41
2019-05-02T02:39:56.443Z,302.52
2019-05-02T02:40:55.319Z,302.53
2019-05-02T02:41:55.513Z,302.56
2019-05-02T02:42:55.331Z,302.35
2019-05-02T02:44:00.518Z,302.36
2019-05-02T02:44:56.294Z,302.46
2019-05-02T02:45:57.642Z,302.60
2019-05-02T02:46:55.317Z,302.35
2019-05-02T02:47:59.819Z,302.44
2019-05-02T02:48:56.231Z,302.41
2019-05-02T02:50:02.474Z,302.56
2019-05-02T02:50:59.468Z,302.72
2019-05-02T02:51:58.176Z,302.43
2019-05-02T02:52:56.335Z,302.60
2019-05-02T02:54:03.106Z,302.35
2019-05-02T02:54:56.138Z,302.46
2019-05-02T02:56:00.789Z,302.48
2019-05-02T02:56:56.187Z,302.57
2019-05-02T02:57:58.652Z,302.48
2019-05-02T02:58:56.235Z,302.40
2019-05-02T03:00:06.678Z,302.58
2019-05-02T03:00:56.074Z,302.39
2019-05-02T03:01:55.104Z,302.55
2019-05-02T03:02:55.066Z,302.39
2019-05-02T03:03:55.134Z,302.49
2019-05-02T03:04:55.045Z,302.50
2019-05-02T03:05:58.698Z,302.38
2019-05-02T03:06:56.013Z,302.51
2019-05-02T03:07:59.760Z,302.42
2019-05-02T03:08:56.013Z,302.31
2019-05-02T03:09:59.611Z,302.55
2019-05-02T03:10:56.032Z,302.48
2019-05-02T03:11:56.341Z,302.53
2019-05-02T03:12:56.011Z,302.58
2019-05-02T03:14:06.160Z,302.40
2019-05-02T03:14:56.111Z,302.43
2019-05-02T03:16:00.322Z,302.55
2019-05-02T03:16:55.994Z,302.56
2019-05-02T03:18:00.052Z,302.31
2019-05-02T03:18:55.870Z,302.41
2019-05-02T03:20:01.121Z,302.40
2019-05-02T03:20:55.866Z,302.54
2019-05-02T03:22:01.210Z,302.65
2019-05-02T03:22:55.897Z,302.32
2019-05-02T03:24:03.032Z,302.38
2019-05-02T03:24:55.908Z,302.64
2019-05-02T03:25:54.826Z,302.50
2019-05-02T03:26:55.647Z,302.34
2019-05-02T03:27:54.805Z,302.20
2019-05-02T03:28:58.380Z,302.40
2019-05-02T03:29:55.750Z,302.38
2019-05-02T03:30:54.950Z,302.41
2019-05-02T03:32:12.446Z,302.40
2019-05-02T03:33:06.035Z,302.61
2019-05-02T03:34:00.568Z,302.52
2019-05-02T03:34:55.733Z,302.53
2019-05-02T03:35:54.735Z,302.44
2019-05-02T03:36:54.730Z,302.41
2019-05-02T03:37:54.704Z,302.36
2019-05-02T03:38:55.287Z,302.35
2019-05-02T03:40:00.354Z,302.43
2019-05-02T03:40:55.694Z,302.41
2019-05-02T03:41:55.417Z,302.55
2019-05-02T03:42:56.948Z,302.47
2019-05-02T03:44:09.965Z,302.44
2019-05-02T03:45:01.492Z,302.53
2019-05-02T03:45:55.630Z,302.50
2019-05-02T03:47:02.375Z,302.39
2019-05-02T03:47:55.550Z,302.50
2019-05-02T03:49:05.529Z,302.33
2019-05-02T03:49:55.563Z,302.36
2019-05-02T03:50:54.732Z,302.41
2019-05-02T03:51:55.800Z,302.26
2019-05-02T03:52:55.536Z,302.56
2019-05-02T03:54:06.356Z,302.50
2019-05-02T03:54:55.588Z,302.30
2019-05-02T03:55:54.481Z,302.55
2019-05-02T03:56:54.519Z,302.52
2019-05-02T03:57:54.483Z,302.44
2019-05-02T03:58:56.242Z,302.22
2019-05-02T03:59:54.468Z,302.38
2019-05-02T04:01:00.481Z,302.53
2019-05-02T04:01:55.421Z,302.40
2019-05-02T04:03:00.390Z,302.56
2019-05-02T04:03:55.502Z,302.17
2019-05-02T04:05:00.340Z,302.35
2019-05-02T04:05:55.557Z,302.36
2019-05-02T04:06:54.973Z,302.25
2019-05-02T04:07:55.444Z,302.54
2019-05-02T04:09:00.034Z,302.28
2019-05-02T04:09:55.496Z,302.64
2019-05-02T04:10:59.514Z,302.47
2019-05-02T04:11:56.294Z,302.29
2019-05-02T04:12:58.368Z,302.44
2019-05-02T04:13:55.356Z,302.50
2019-05-02T04:14:55.945Z,302.43
2019-05-02T04:15:54.327Z,302.47
2019-05-02T04:16:55.169Z,302.28
2019-05-02T04:17:54.265Z,302.44
2019-05-02T04:18:55.822Z,302.39
2019-05-02T04:19:54.328Z,302.34
2019-05-02T04:20:54.234Z,302.48
2019-05-02T04:21:54.961Z,302.34
2019-05-02T04:22:54.798Z,302.35
2019-05-02T04:23:54.207Z,302.39
2019-05-02T04:24:56.330Z,302.30
2019-05-02T04:25:54.206Z,302.27
2019-05-02T04:26:56.337Z,302.33
2019-05-02T04:27:54.156Z,302.12
2019-05-02T04:28:54.139Z,302.45
2019-05-02T04:29:54.181Z,302.56
2019-05-02T04:30:54.169Z,302.41
2019-05-02T04:31:54.929Z,302.48
2019-05-02T04:32:55.803Z,302.60
2019-05-02T04:33:54.081Z,302.14
2019-05-02T04:34:55.265Z,302.49
2019-05-02T04:35:54.153Z,302.46
2019-05-02T04:37:01.590Z,302.53
2019-05-02T04:37:57.495Z,302.38
2019-05-02T04:38:54.081Z,302.31
2019-05-02T04:39:59.144Z,302.41
2019-05-02T04:40:55.124Z,302.40
2019-05-02T04:41:54.041Z,302.57
2019-05-02T04:43:02.101Z,302.47
2019-05-02T04:43:57.819Z,302.33
2019-05-02T04:45:13.877Z,302.70
2019-05-02T04:45:59.719Z,302.54
2019-05-02T04:47:09.975Z,302.45
2019-05-02T04:48:00.911Z,302.49
2019-05-02T04:48:55.431Z,302.41
2019-05-02T04:49:53.908Z,302.35
2019-05-02T04:51:08.660Z,302.62
2019-05-02T04:52:11.574Z,302.58
2019-05-02T04:53:18.293Z,302.37
2019-05-02T04:53:59.338Z,302.54
2019-05-02T04:55:08.126Z,302.68
2019-05-02T04:56:06.910Z,302.43
2019-05-02T04:56:55.482Z,302.56
2019-05-02T04:57:53.873Z,302.16
2019-05-02T04:58:53.805Z,302.45
2019-05-02T05:00:02.374Z,302.37
2019-05-02T05:00:59.312Z,302.54
2019-05-02T05:02:00.365Z,302.38
2019-05-02T05:02:54.969Z,302.48
2019-05-02T05:03:58.171Z,302.36
2019-05-02T05:04:54.748Z,302.37
2019-05-02T05:05:59.380Z,302.43
2019-05-02T05:07:00.082Z,302.43
2019-05-02T05:07:54.733Z,302.44
2019-05-02T05:08:53.771Z,302.52
2019-05-02T05:09:58.262Z,302.40
2019-05-02T05:10:54.707Z,302.36
2019-05-02T05:11:53.787Z,302.29
2019-05-02T05:12:53.677Z,302.27
2019-05-02T05:13:57.599Z,302.44
2019-05-02T05:14:54.712Z,302.41
2019-05-02T05:15:57.329Z,302.60
2019-05-02T05:16:58.020Z,302.44
2019-05-02T05:17:53.654Z,302.35
2019-05-02T05:18:53.682Z,302.22
2019-05-02T05:19:57.724Z,302.15
2019-05-02T05:21:03.082Z,302.22
2019-05-02T05:22:47.900Z,302.38
2019-05-02T05:22:54.693Z,302.43
2019-05-02T05:23:59.673Z,302.02
2019-05-02T05:24:58.107Z,302.21
2019-05-02T05:25:55.786Z,302.20
2019-05-02T05:26:54.557Z,302.15
2019-05-02T05:28:00.225Z,302.47
2019-05-02T05:28:54.511Z,302.51
2019-05-02T05:29:58.586Z,302.52
2019-05-02T05:30:54.538Z,302.49
2019-05-02T05:31:55.092Z,302.09
2019-05-02T05:32:54.465Z,302.23
2019-05-02T05:33:53.445Z,302.27
2019-05-02T05:34:53.469Z,302.25
2019-05-02T05:35:53.403Z,302.17
2019-05-02T05:36:53.406Z,302.10
2019-05-02T05:37:53.492Z,302.45
2019-05-02T05:38:53.428Z,302.31
2019-05-02T05:39:53.369Z,302.30
2019-05-02T05:41:08.955Z,302.21
2019-05-02T05:41:54.358Z,302.50
2019-05-02T05:42:54.450Z,302.42
2019-05-02T05:43:53.672Z,302.32
2019-05-02T05:44:53.322Z,302.28
2019-05-02T05:45:56.301Z,302.52
2019-05-02T05:46:54.345Z,302.44
2019-05-02T05:47:57.605Z,302.54
2019-05-02T05:48:54.825Z,302.40
2019-05-02T05:49:57.562Z,302.39
2019-05-02T05:50:54.368Z,302.26
2019-05-02T05:51:54.445Z,302.28
2019-05-02T05:52:54.331Z,302.19
2019-05-02T05:53:59.065Z,302.50
2019-05-02T05:54:54.226Z,302.40
2019-05-02T05:55:53.621Z,302.39
2019-05-02T05:56:53.383Z,302.31
2019-05-02T05:57:59.468Z,302.29
2019-05-02T05:58:54.149Z,302.50
2019-05-02T05:59:53.155Z,302.35
2019-05-02T06:00:55.447Z,302.36
2019-05-02T06:01:53.176Z,302.47
2019-05-02T06:02:56.780Z,302.35
2019-05-02T06:03:54.165Z,302.37
2019-05-02T06:04:55.186Z,302.31
2019-05-02T06:05:54.108Z,302.34
2019-05-02T06:06:53.997Z,302.32
2019-05-02T06:07:54.095Z,302.41
2019-05-02T06:08:54.023Z,302.54
2019-05-02T06:09:53.068Z,302.51
2019-05-02T06:10:53.036Z,302.39
2019-05-02T06:11:55.353Z,302.51
2019-05-02T06:12:53.003Z,302.58
2019-05-02T06:13:53.018Z,302.64
2019-05-02T06:14:56.226Z,302.42
2019-05-02T06:16:01.930Z,302.48
2019-05-02T06:16:53.967Z,302.52
2019-05-02T06:17:52.959Z,302.29
2019-05-02T06:18:52.984Z,302.59
2019-05-02T06:19:55.392Z,302.31
2019-05-02T06:20:52.941Z,302.14
2019-05-02T06:21:52.960Z,302.26
2019-05-02T06:22:55.013Z,302.49
2019-05-02T06:23:53.960Z,302.34
2019-05-02T06:24:52.928Z,302.37
2019-05-02T06:25:52.890Z,302.30
2019-05-02T06:26:52.896Z,302.37
2019-05-02T06:27:52.950Z,302.36
2019-05-02T06:28:52.887Z,302.29
2019-05-02T06:29:56.081Z,302.59
2019-05-02T06:30:52.873Z,302.34
2019-05-02T06:31:52.811Z,302.36
2019-05-02T06:32:54.856Z,302.34
2019-05-02T06:33:52.810Z,302.67
2019-05-02T06:34:52.804Z,302.38
2019-05-02T06:36:01.130Z,302.50
2019-05-02T06:36:53.792Z,302.36
2019-05-02T06:37:52.741Z,302.50
2019-05-02T06:38:56.638Z,302.31
2019-05-02T06:39:53.729Z,302.34
2019-05-02T06:40:53.360Z,302.21
2019-05-02T06:41:57.523Z,302.34
2019-05-02T06:42:53.714Z,302.53
2019-05-02T06:43:52.718Z,302.27
2019-05-02T06:44:54.911Z,302.26
2019-05-02T06:45:53.688Z,302.32
2019-05-02T06:46:52.679Z,302.31
2019-05-02T06:47:52.650Z,302.36
2019-05-02T06:48:53.661Z,302.43
2019-05-02T06:49:56.036Z,302.16
2019-05-02T06:50:53.661Z,302.54
2019-05-02T06:51:56.394Z,302.37
2019-05-02T06:52:53.575Z,302.47
2019-05-02T06:53:52.621Z,302.40
2019-05-02T06:54:54.094Z,302.24
2019-05-02T06:55:53.563Z,302.39
2019-05-02T06:56:52.572Z,302.44
2019-05-02T06:57:57.006Z,302.26
2019-05-02T06:58:53.533Z,302.50
2019-05-02T06:59:54.655Z,302.33
2019-05-02T07:00:58.364Z,302.29
2019-05-02T07:01:57.441Z,302.31
2019-05-02T07:02:52.500Z,302.35
2019-05-02T07:03:52.472Z,302.29
2019-05-02T07:04:54.757Z,302.43
2019-05-02T07:05:52.457Z,302.30
2019-05-02T07:06:58.895Z,302.35
2019-05-02T07:07:53.485Z,302.36
2019-05-02T07:08:52.454Z,302.36
2019-05-02T07:09:52.449Z,302.46
2019-05-02T07:10:55.964Z,302.49
2019-05-02T07:11:57.430Z,302.25
2019-05-02T07:13:09.796Z,302.38
2019-05-02T07:13:53.948Z,302.01
2019-05-02T07:14:56.091Z,302.17
2019-05-02T07:15:53.393Z,302.38
2019-05-02T07:16:54.641Z,302.02
2019-05-02T07:17:52.327Z,302.24
2019-05-02T07:18:52.308Z,302.49
2019-05-02T07:19:52.305Z,302.10
2019-05-02T07:20:52.397Z,302.15
2019-05-02T07:21:53.041Z,302.01
2019-05-02T07:22:53.285Z,302.22
2019-05-02T07:23:53.512Z,302.14
2019-05-02T07:24:52.260Z,302.21
2019-05-02T07:25:52.240Z,302.18
2019-05-02T07:26:56.807Z,302.17
2019-05-02T07:27:52.263Z,302.38
2019-05-02T07:28:52.206Z,302.44
2019-05-02T07:29:57.818Z,302.12
2019-05-02T07:30:54.826Z,302.04
2019-05-02T07:31:53.646Z,302.24
2019-05-02T07:32:56.327Z,302.34
2019-05-02T07:33:53.172Z,302.31
2019-05-02T07:34:52.973Z,302.21
2019-05-02T07:35:55.195Z,302.39
2019-05-02T07:36:53.123Z,302.27
2019-05-02T07:37:52.140Z,302.29
2019-05-02T07:38:52.124Z,302.23
2019-05-02T07:39:52.107Z,302.15
2019-05-02T07:40:53.054Z,302.28
2019-05-02T07:41:52.061Z,302.29
2019-05-02T07:42:52.136Z,302.23
2019-05-02T07:43:55.904Z,302.08
2019-05-02T07:44:52.063Z,302.07
2019-05-02T07:45:52.853Z,302.11
2019-05-02T07:46:52.488Z,302.01
2019-05-02T07:47:52.012Z,302.25
2019-05-02T07:48:54.515Z,302.02
2019-05-02T07:49:51.991Z,302.42
2019-05-02T07:50:52.586Z,302.13
2019-05-02T07:51:52.405Z,302.17
2019-05-02T07:52:53.499Z,302.08
2019-05-02T07:53:51.964Z,302.34
2019-05-02T07:54:56.153Z,302.44
2019-05-02T07:55:52.909Z,302.17
2019-05-02T07:56:53.301Z,302.34
2019-05-02T07:57:51.917Z,302.26
2019-05-02T07:58:51.887Z,302.33
2019-05-02T07:59:54.965Z,302.20
2019-05-02T08:00:52.888Z,302.18
2019-05-02T08:01:51.845Z,302.23
2019-05-02T08:02:51.841Z,302.04
2019-05-02T08:03:51.849Z,302.30
2019-05-02T08:04:51.843Z,302.17
2019-05-02T08:05:54.417Z,302.15
2019-05-02T08:06:52.838Z,302.33
2019-05-02T08:07:53.351Z,302.15
2019-05-02T08:08:51.804Z,302.08
2019-05-02T08:09:51.863Z,302.03
2019-05-02T08:10:53.870Z,302.25
2019-05-02T08:11:52.772Z,302.32
2019-05-02T08:12:51.749Z,302.38
2019-05-02T08:13:55.816Z,302.35
2019-05-02T08:14:52.719Z,302.26
2019-05-02T08:15:52.455Z,302.21
2019-05-02T08:17:04.723Z,302.30
2019-05-02T08:17:53.871Z,302.35
2019-05-02T08:18:51.699Z,302.26
2019-05-02T08:19:51.669Z,302.31
2019-05-02T08:20:55.965Z,302.34
2019-05-02T08:21:52.662Z,302.16
2019-05-02T08:22:51.642Z,302.41
2019-05-02T08:23:51.691Z,301.98
2019-05-02T08:24:51.609Z,302.33
2019-05-02T08:25:51.593Z,302.23
2019-05-02T08:26:53.405Z,302.25
2019-05-02T08:27:52.616Z,302.37
2019-05-02T08:28:53.151Z,302.32
2019-05-02T08:29:51.556Z,302.26
2019-05-02T08:30:51.570Z,302.13
2019-05-02T08:31:51.558Z,302.42
2019-05-02T08:32:51.589Z,302.13
2019-05-02T08:33:51.515Z,302.24
2019-05-02T08:34:53.420Z,302.24
2019-05-02T08:35:51.504Z,302.35
2019-05-02T08:36:51.475Z,302.44
2019-05-02T08:37:51.496Z,302.17
2019-05-02T08:38:53.751Z,302.33
2019-05-02T08:39:51.557Z,302.55
2019-05-02T08:40:51.483Z,302.40
2019-05-02T08:41:56.238Z,302.18
2019-05-02T08:42:52.414Z,302.41
2019-05-02T08:43:51.449Z,302.40
2019-05-02T08:44:55.916Z,302.31
2019-05-02T08:45:51.516Z,302.17
2019-05-02T08:46:53.251Z,302.47
2019-05-02T08:47:51.369Z,302.40
2019-05-02T08:48:51.447Z,302.53
2019-05-02T08:49:54.758Z,302.23
2019-05-02T08:50:52.377Z,302.43
2019-05-02T08:51:51.395Z,302.46
2019-05-02T08:52:51.377Z,302.35
2019-05-02T08:53:52.161Z,302.36
2019-05-02T08:54:52.342Z,302.37
2019-05-02T08:55:51.327Z,302.48
2019-05-02T08:56:53.215Z,302.41
2019-05-02T08:57:52.287Z,302.47
2019-05-02T08:58:51.279Z,302.44
2019-05-02T08:59:55.469Z,302.39
2019-05-02T09:00:52.279Z,302.51
2019-05-02T09:01:51.407Z,302.20
2019-05-02T09:02:51.206Z,302.23
2019-05-02T09:03:56.396Z,302.51
2019-05-02T09:04:58.792Z,302.41
2019-05-02T09:06:04.928Z,302.32
2019-05-02T09:06:53.221Z,302.38
2019-05-02T09:07:52.155Z,302.33
2019-05-02T09:08:51.779Z,302.39
2019-05-02T09:09:51.139Z,302.14
2019-05-02T09:10:51.160Z,302.21
2019-05-02T09:12:03.310Z,302.40
2019-05-02T09:12:52.203Z,302.36
2019-05-02T09:13:52.632Z,302.34
2019-05-02T09:14:52.094Z,302.50
2019-05-02T09:15:53.972Z,302.26
2019-05-02T09:16:52.326Z,302.32
2019-05-02T09:17:56.278Z,302.25
2019-05-02T09:18:54.178Z,302.28
2019-05-02T09:20:00.325Z,302.41
2019-05-02T09:20:56.359Z,302.20
2019-05-02T09:21:52.591Z,302.15
2019-05-02T09:22:55.824Z,302.49
2019-05-02T09:23:51.907Z,302.40
2019-05-02T09:24:52.030Z,302.54
2019-05-02T09:25:51.945Z,302.35
2019-05-02T09:26:51.943Z,302.36
2019-05-02T09:27:52.631Z,302.45
2019-05-02T09:28:51.721Z,302.54
2019-05-02T09:29:51.925Z,302.64
2019-05-02T09:30:52.423Z,302.45
2019-05-02T09:31:59.506Z,302.85
2019-05-02T09:32:52.159Z,302.54
2019-05-02T09:33:59.513Z,302.44
2019-05-02T09:34:51.850Z,302.38
2019-05-02T09:36:02.351Z,302.51
2019-05-02T09:36:52.775Z,302.56
2019-05-02T09:38:01.775Z,302.65
2019-05-02T09:38:55.130Z,302.55
2019-05-02T09:39:52.530Z,302.35
2019-05-02T09:41:13.833Z,302.43
2019-05-02T09:41:52.737Z,302.48
2019-05-02T09:42:53.312Z,302.45
2019-05-02T09:43:52.403Z,302.37
2019-05-02T09:44:55.416Z,302.36
2019-05-02T09:45:52.119Z,302.18
2019-05-02T09:46:55.259Z,302.27
2019-05-02T09:47:59.563Z,302.20
2019-05-02T09:48:52.006Z,302.42
2019-05-02T09:49:53.065Z,302.29
2019-05-02T09:50:52.708Z,302.35
2019-05-02T09:51:59.344Z,302.29
2019-05-02T09:52:52.381Z,302.18
2019-05-02T09:53:52.374Z,302.18
2019-05-02T09:54:51.863Z,302.10
2019-05-02T09:55:55.748Z,302.43
2019-05-02T09:56:52.621Z,302.23
2019-05-02T09:57:51.963Z,302.36
2019-05-02T09:58:55.054Z,302.07
2019-05-02T09:59:55.704Z,302.03
2019-05-02T10:00:52.496Z,302.16
2019-05-02T10:01:52.567Z,302.14
2019-05-02T10:02:52.304Z,302.25
2019-05-02T10:03:51.840Z,302.33
2019-05-02T10:04:52.231Z,302.15
2019-05-02T10:05:52.331Z,302.11
2019-05-02T10:06:52.455Z,302.02
2019-05-02T10:07:52.427Z,302.23
2019-05-02T10:08:51.975Z,302.32
2019-05-02T10:09:51.914Z,302.33
2019-05-02T10:10:52.153Z,302.30
2019-05-02T10:11:52.359Z,302.53
2019-05-02T10:12:52.139Z,302.21
2019-05-02T10:13:51.900Z,301.88
2019-05-02T10:14:52.616Z,302.17
2019-05-02T10:15:52.569Z,302.29
2019-05-02T10:16:52.755Z,302.26
2019-05-02T10:17:51.895Z,302.06
2019-05-02T10:18:52.280Z,302.09
2019-05-02T10:19:54.949Z,302.12
2019-05-02T10:20:52.391Z,302.18
2019-05-02T10:21:54.365Z,302.00
2019-05-02T10:22:52.811Z,302.27
2019-05-02T10:23:53.727Z,302.32
2019-05-02T10:24:51.992Z,302.23
2019-05-02T10:25:52.100Z,302.14
2019-05-02T10:26:55.198Z,302.05
2019-05-02T10:27:52.343Z,302.20
2019-05-02T10:28:51.216Z,302.03
2019-05-02T10:29:52.341Z,302.18
2019-05-02T10:30:52.750Z,302.25
2019-05-02T10:31:52.671Z,302.31
2019-05-02T10:32:52.833Z,302.29
2019-05-02T10:33:52.919Z,302.17
2019-05-02T10:34:55.188Z,302.18
2019-05-02T10:35:52.457Z,302.22
2019-05-02T10:36:54.157Z,302.33
2019-05-02T10:37:52.145Z,302.00
2019-05-02T10:38:54.778Z,302.17
2019-05-02T10:39:52.198Z,302.24
2019-05-02T10:40:56.189Z,301.97
2019-05-02T10:41:52.656Z,302.11
2019-05-02T10:42:52.092Z,302.12
2019-05-02T10:43:53.939Z,302.11
2019-05-02T10:44:52.140Z,301.95
2019-05-02T10:45:52.890Z,302.05
2019-05-02T10:46:52.283Z,302.13
2019-05-02T10:47:50.073Z,301.93
2019-05-02T10:48:50.061Z,301.86
2019-05-02T10:49:50.066Z,301.93
2019-05-02T10:50:50.074Z,302.07
2019-05-02T10:51:51.380Z,301.87
2019-05-02T10:52:50.028Z,301.99
2019-05-02T10:53:52.597Z,301.84
2019-05-02T10:54:52.817Z,301.88
2019-05-02T10:55:52.109Z,302.15
2019-05-02T10:56:51.774Z,302.08
2019-05-02T10:57:50.112Z,301.83
2019-05-02T10:58:52.209Z,302.23
2019-05-02T10:59:49.968Z,301.88
2019-05-02T11:00:52.176Z,302.20
2019-05-02T11:01:52.026Z,302.15
2019-05-02T11:02:49.986Z,302.03
2019-05-02T11:03:51.668Z,302.31
2019-05-02T11:04:49.916Z,302.34
2019-05-02T11:05:49.932Z,302.12
2019-05-02T11:06:51.747Z,302.38
2019-05-02T11:07:52.161Z,302.08
2019-05-02T11:08:49.896Z,302.10
2019-05-02T11:09:49.841Z,302.17
2019-05-02T11:10:49.877Z,302.13
2019-05-02T11:11:51.861Z,302.15
2019-05-02T11:12:49.960Z,302.30
2019-05-02T11:13:53.372Z,302.20
2019-05-02T11:14:51.667Z,302.24
2019-05-02T11:15:49.790Z,302.09
2019-05-02T11:16:49.809Z,302.21
2019-05-02T11:17:49.900Z,302.30
2019-05-02T11:18:52.293Z,302.44
2019-05-02T11:19:49.763Z,302.36
2019-05-02T11:20:49.807Z,302.48
2019-05-02T11:21:56.278Z,302.48
2019-05-02T11:22:52.662Z,302.41
2019-05-02T11:23:49.885Z,302.77
2019-05-02T11:24:49.695Z,302.73
2019-05-02T11:25:49.689Z,302.61
2019-05-02T11:26:49.665Z,302.55
2019-05-02T11:27:49.670Z,302.52
2019-05-02T11:28:49.657Z,302.39
2019-05-02T11:29:49.690Z,302.46
2019-05-02T11:30:49.657Z,302.20
2019-05-02T11:31:49.623Z,302.00
2019-05-02T11:32:49.606Z,302.08
2019-05-02T11:33:49.613Z,302.12
2019-05-02T11:34:49.607Z,302.10
2019-05-02T11:35:51.571Z,301.88
2019-05-02T11:36:49.644Z,301.47
2019-05-02T11:37:51.598Z,301.67
2019-05-02T11:38:59.088Z,301.80
2019-05-02T11:39:53.442Z,301.82
2019-05-02T11:40:52.069Z,302.01
2019-05-02T11:41:49.757Z,301.86
2019-05-02T11:42:49.579Z,301.94
2019-05-02T11:43:49.543Z,302.05
2019-05-02T11:44:49.499Z,302.00
2019-05-02T11:45:54.218Z,302.03
2019-05-02T11:46:52.053Z,302.00
2019-05-02T11:47:49.451Z,302.07
2019-05-02T11:48:56.433Z,302.19
2019-05-02T11:49:53.326Z,302.02
2019-05-02T11:50:52.344Z,301.99
2019-05-02T11:51:52.670Z,301.91
2019-05-02T11:52:52.257Z,302.07
2019-05-02T11:53:49.371Z,302.14
2019-05-02T11:54:49.364Z,301.81
2019-05-02T11:55:49.371Z,302.26
2019-05-02T11:56:51.316Z,302.15
2019-05-02T11:57:49.365Z,302.31
2019-05-02T11:58:50.301Z,302.18
2019-05-02T11:59:49.313Z,301.97
2019-05-02T12:00:49.781Z,302.09
2019-05-02T12:01:59.108Z,302.24
2019-05-02T12:02:56.247Z,301.81
2019-05-02T12:03:52.258Z,301.79
2019-05-02T12:04:53.883Z,301.83
2019-05-02T12:05:52.263Z,301.90
2019-05-02T12:06:58.259Z,301.72
2019-05-02T12:07:50.283Z,301.52
2019-05-02T12:08:49.558Z,301.82
2019-05-02T12:09:55.478Z,301.66
2019-05-02T12:10:51.933Z,301.45
2019-05-02T12:11:52.784Z,301.30
2019-05-02T12:12:50.180Z,301.74
2019-05-02T12:13:52.757Z,301.65
2019-05-02T12:14:50.159Z,301.49
2019-05-02T12:15:49.171Z,301.51
2019-05-02T12:16:49.180Z,301.66
2019-05-02T12:17:49.197Z,301.74
2019-05-02T12:18:49.113Z,301.87
2019-05-02T12:19:49.163Z,301.53
2019-05-02T12:20:49.104Z,301.76
2019-05-02T12:21:49.055Z,301.67
2019-05-02T12:22:49.073Z,301.69
2019-05-02T12:23:49.080Z,301.86
2019-05-02T12:24:49.052Z,301.68
2019-05-02T12:25:49.073Z,301.68
2019-05-02T12:26:49.017Z,301.63
2019-05-02T12:27:49.054Z,301.65
2019-05-02T12:28:49.054Z,301.71